createdAt,value
2023-02-09T00:01:53.353Z,14.65
2023-02-09T00:04:38.694Z,15.63
2023-02-09T00:07:24.114Z,15.52
2023-02-09T00:10:10.052Z,17.33
2023-02-09T00:13:14.021Z,20.48
2023-02-09T00:16:04.335Z,16.30
2023-02-09T00:18:49.800Z,16.98
2023-02-09T00:21:35.518Z,16.85
2023-02-09T00:24:21.071Z,13.65
2023-02-09T00:27:06.152Z,16.55
2023-02-09T00:29:51.617Z,15.82
2023-02-09T00:32:37.109Z,18.60
2023-02-09T00:35:22.724Z,17.45
2023-02-09T00:38:09.300Z,17.30
2023-02-09T00:40:54.577Z,14.77
2023-02-09T00:43:40.330Z,16.33
2023-02-09T00:46:25.474Z,20.38
2023-02-09T00:49:10.717Z,18.42
2023-02-09T00:51:56.700Z,17.83
2023-02-09T00:54:42.378Z,16.58
2023-02-09T00:57:28.326Z,14.48
2023-02-09T01:00:14.978Z,15.77
2023-02-09T01:03:00.432Z,14.48
2023-02-09T01:05:45.769Z,15.20
2023-02-09T01:08:30.997Z,17.45
2023-02-09T01:11:16.955Z,15.45
2023-02-09T01:14:04.225Z,14.93
2023-02-09T01:16:49.191Z,11.98
2023-02-09T01:19:35.466Z,14.57
2023-02-09T01:22:21.430Z,18.00
2023-02-09T01:25:08.635Z,14.13
2023-02-09T01:27:53.985Z,18.30
2023-02-09T01:30:39.446Z,22.88
2023-02-09T01:33:25.064Z,14.63
2023-02-09T01:36:11.045Z,15.85
2023-02-09T01:38:57.914Z,16.33
2023-02-09T01:41:44.385Z,16.35
2023-02-09T01:44:30.211Z,15.32
2023-02-09T01:47:17.041Z,20.15
2023-02-09T01:50:03.370Z,17.23
2023-02-09T01:52:49.629Z,16.45
2023-02-09T01:55:47.315Z,23.77
2023-02-09T01:58:33.248Z,18.70
2023-02-09T02:01:18.660Z,21.17
2023-02-09T02:04:04.720Z,15.88
2023-02-09T02:06:52.248Z,18.40
2023-02-09T02:09:37.637Z,16.88
2023-02-09T02:12:23.943Z,19.55
2023-02-09T02:15:09.419Z,16.33
2023-02-09T02:18:09.560Z,17.55
2023-02-09T02:21:16.912Z,20.33
2023-02-09T02:24:29.725Z,18.13
2023-02-09T02:30:18.168Z,18.73
2023-02-09T02:33:29.328Z,18.38
2023-02-09T02:36:28.486Z,17.40
2023-02-09T02:39:25.873Z,21.95
2023-02-09T02:42:45.009Z,17.65
2023-02-09T02:45:40.065Z,20.65
2023-02-09T02:48:53.743Z,16.63
2023-02-09T02:51:48.460Z,16.67
2023-02-09T02:54:39.954Z,15.52
2023-02-09T02:57:27.974Z,18.30
2023-02-09T03:00:17.173Z,20.38
2023-02-09T03:03:06.383Z,17.10
2023-02-09T03:05:52.065Z,19.65
2023-02-09T03:08:48.220Z,18.15
2023-02-09T03:11:53.976Z,14.85
2023-02-09T03:14:39.796Z,16.73
2023-02-09T03:17:41.625Z,15.57
2023-02-09T03:20:43.619Z,16.08
2023-02-09T03:23:34.134Z,11.77
2023-02-09T03:26:25.192Z,17.08
2023-02-09T03:29:12.698Z,15.88
2023-02-09T03:31:58.707Z,17.83
2023-02-09T03:34:45.165Z,16.13
2023-02-09T03:37:30.490Z,21.58
2023-02-09T03:40:15.925Z,18.98
2023-02-09T03:43:01.403Z,15.40
2023-02-09T03:45:46.600Z,22.80
2023-02-09T03:48:31.927Z,17.85
2023-02-09T03:51:17.284Z,15.88
2023-02-09T03:54:03.816Z,19.88
2023-02-09T03:56:49.578Z,13.38
2023-02-09T03:59:38.115Z,14.43
2023-02-09T04:02:23.848Z,16.65
2023-02-09T04:05:09.941Z,19.27
2023-02-09T04:07:55.363Z,17.80
2023-02-09T04:10:41.127Z,16.25
2023-02-09T04:13:27.422Z,18.48
2023-02-09T04:16:12.989Z,18.45
2023-02-09T04:18:59.005Z,20.63
2023-02-09T04:21:44.540Z,17.17
2023-02-09T04:24:30.328Z,18.70
2023-02-09T04:27:16.149Z,19.92
2023-02-09T04:30:01.757Z,15.60
2023-02-09T04:32:47.491Z,19.27
2023-02-09T04:35:33.400Z,18.90
2023-02-09T04:38:20.518Z,17.88
2023-02-09T04:41:06.720Z,20.05
2023-02-09T04:43:52.221Z,17.73
2023-02-09T04:46:37.984Z,16.33
2023-02-09T04:49:23.989Z,17.40
2023-02-09T04:52:09.678Z,18.95
2023-02-09T04:54:55.570Z,14.68
2023-02-09T04:57:59.932Z,13.65
2023-02-09T05:00:45.978Z,19.75
2023-02-09T05:03:32.185Z,16.55
2023-02-09T05:06:18.322Z,20.08
2023-02-09T05:09:04.295Z,15.80
2023-02-09T05:11:50.006Z,17.65
2023-02-09T05:14:35.536Z,15.27
2023-02-09T05:17:21.416Z,15.20
2023-02-09T05:20:07.571Z,17.13
2023-02-09T05:22:53.409Z,18.55
2023-02-09T05:25:39.417Z,23.00
2023-02-09T05:28:25.831Z,16.55
2023-02-09T05:31:12.004Z,17.33
2023-02-09T05:33:57.864Z,16.42
2023-02-09T05:36:43.554Z,15.93
2023-02-09T05:39:29.465Z,16.65
2023-02-09T05:42:15.369Z,15.65
2023-02-09T05:45:01.143Z,25.83
2023-02-09T05:47:46.986Z,16.60
2023-02-09T05:50:32.809Z,17.60
2023-02-09T05:53:18.634Z,15.60
2023-02-09T05:56:04.256Z,20.42
2023-02-09T05:58:49.645Z,17.10
2023-02-09T06:01:35.290Z,13.45
2023-02-09T06:04:20.594Z,15.80
2023-02-09T06:07:06.004Z,15.90
2023-02-09T06:09:51.281Z,20.20
2023-02-09T06:12:36.569Z,16.20
2023-02-09T06:15:22.169Z,18.42
2023-02-09T06:18:07.496Z,18.60
2023-02-09T06:20:54.059Z,19.35
2023-02-09T06:23:39.928Z,17.42
2023-02-09T06:26:25.087Z,17.25
2023-02-09T06:29:10.697Z,16.13
2023-02-09T06:31:55.793Z,14.85
2023-02-09T06:34:41.075Z,22.15
2023-02-09T06:37:26.339Z,19.48
2023-02-09T06:40:12.153Z,16.20
2023-02-09T06:42:57.295Z,17.90
2023-02-09T06:45:42.705Z,19.85
2023-02-09T06:48:28.169Z,18.10
2023-02-09T06:51:15.183Z,19.20
2023-02-09T06:54:00.562Z,17.52
2023-02-09T06:56:46.406Z,16.00
2023-02-09T06:59:32.161Z,17.10
2023-02-09T07:02:17.918Z,14.52
2023-02-09T07:05:04.444Z,14.57
2023-02-09T07:07:49.508Z,18.73
2023-02-09T07:10:35.315Z,14.30
2023-02-09T07:13:20.945Z,15.02
2023-02-09T07:16:08.248Z,16.88
2023-02-09T07:18:54.203Z,19.52
2023-02-09T07:21:40.078Z,19.23
2023-02-09T07:24:26.018Z,15.13
2023-02-09T07:27:11.732Z,14.60
2023-02-09T07:29:58.758Z,20.65
2023-02-09T07:32:45.732Z,15.27
2023-02-09T07:35:31.350Z,15.52
2023-02-09T07:38:17.065Z,17.98
2023-02-09T07:41:03.841Z,19.10
2023-02-09T07:43:49.544Z,19.42
2023-02-09T07:46:35.836Z,18.40
2023-02-09T07:49:21.375Z,17.60
2023-02-09T07:52:07.176Z,18.88
2023-02-09T07:54:53.013Z,17.00
2023-02-09T07:57:38.982Z,22.40
2023-02-09T08:00:25.515Z,21.85
2023-02-09T08:03:11.468Z,21.45
2023-02-09T08:06:03.425Z,16.30
2023-02-09T08:08:49.887Z,21.45
2023-02-09T08:11:53.587Z,21.85
2023-02-09T08:14:42.976Z,21.67
2023-02-09T08:17:29.362Z,21.63
2023-02-09T08:20:20.278Z,18.13
2023-02-09T08:23:30.050Z,26.80
2023-02-09T08:26:15.260Z,27.40
2023-02-09T08:29:00.792Z,26.27
2023-02-09T08:31:46.196Z,23.73
2023-02-09T08:34:31.415Z,31.33
2023-02-09T08:37:16.809Z,20.92
2023-02-09T08:40:02.006Z,20.42
2023-02-09T08:42:47.682Z,23.00
2023-02-09T08:45:38.926Z,18.40
2023-02-09T08:48:24.512Z,24.75
2023-02-09T08:51:13.020Z,17.80
2023-02-09T08:53:58.025Z,17.17
2023-02-09T08:56:44.156Z,15.60
2023-02-09T08:59:29.324Z,18.83
2023-02-09T09:02:14.584Z,20.13
2023-02-09T09:04:59.947Z,18.75
2023-02-09T09:07:45.402Z,22.25
2023-02-09T09:10:31.058Z,18.98
2023-02-09T09:13:16.352Z,20.90
2023-02-09T09:16:03.680Z,19.73
2023-02-09T09:18:50.824Z,20.13
2023-02-09T09:21:36.119Z,16.35
2023-02-09T09:24:23.181Z,15.05
2023-02-09T09:27:10.343Z,16.58
2023-02-09T09:29:55.900Z,19.08
2023-02-09T09:32:41.376Z,17.13
2023-02-09T09:35:27.757Z,15.80
2023-02-09T09:38:12.914Z,13.48
2023-02-09T09:40:58.308Z,11.68
2023-02-09T09:43:43.902Z,12.23
2023-02-09T09:46:51.445Z,20.90
2023-02-09T09:49:37.867Z,8.85
2023-02-09T09:52:36.153Z,12.18
2023-02-09T09:55:32.338Z,12.20
2023-02-09T09:58:18.761Z,14.35
2023-02-09T10:01:04.485Z,13.30
2023-02-09T10:03:49.792Z,14.23
2023-02-09T10:06:35.080Z,15.65
2023-02-09T10:09:39.129Z,12.15
2023-02-09T10:12:37.955Z,11.70
2023-02-09T10:15:34.730Z,11.13
2023-02-09T10:18:25.270Z,14.20
2023-02-09T10:21:15.928Z,12.00
2023-02-09T10:24:01.048Z,11.65
2023-02-09T10:27:06.148Z,11.07
2023-02-09T10:29:51.772Z,14.00
2023-02-09T10:32:41.006Z,8.45
2023-02-09T10:35:41.289Z,10.15
2023-02-09T10:38:33.135Z,10.13
2023-02-09T10:41:21.039Z,12.02
2023-02-09T10:44:26.473Z,11.88
2023-02-09T10:47:28.898Z,10.50
2023-02-09T10:50:18.188Z,9.35
2023-02-09T10:53:19.199Z,10.50
2023-02-09T10:56:20.548Z,10.90
2023-02-09T10:59:20.732Z,11.55
2023-02-09T11:02:35.997Z,12.32
2023-02-09T11:05:21.264Z,11.70
2023-02-09T11:08:20.678Z,13.20
2023-02-09T11:11:11.119Z,11.15
2023-02-09T11:13:56.714Z,12.02
2023-02-09T11:16:46.230Z,13.80
2023-02-09T11:19:55.766Z,12.98
2023-02-09T11:23:21.241Z,15.23
2023-02-09T11:26:25.719Z,13.07
2023-02-09T11:29:30.282Z,9.82
2023-02-09T11:32:25.237Z,13.40
2023-02-09T11:35:12.689Z,13.80
2023-02-09T11:38:05.344Z,10.95
2023-02-09T11:40:55.612Z,11.38
2023-02-09T11:43:43.206Z,12.63
2023-02-09T11:46:33.280Z,10.25
2023-02-09T11:49:21.278Z,11.20
2023-02-09T11:52:09.275Z,11.50
2023-02-09T11:54:59.540Z,9.18
2023-02-09T11:57:50.423Z,10.82
2023-02-09T12:00:56.011Z,10.63
2023-02-09T12:04:21.871Z,15.43
2023-02-09T12:07:20.894Z,11.00
2023-02-09T12:10:29.691Z,8.68
2023-02-09T12:13:30.196Z,11.63
2023-02-09T12:16:19.729Z,8.23
2023-02-09T12:19:06.509Z,11.73
2023-02-09T12:21:51.561Z,9.82
2023-02-09T12:24:40.098Z,12.57
2023-02-09T12:27:26.852Z,11.45
2023-02-09T12:30:40.154Z,13.02
2023-02-09T12:33:25.746Z,11.90
2023-02-09T12:36:12.539Z,12.48
2023-02-09T12:39:07.891Z,10.43
2023-02-09T12:41:53.465Z,9.57
2023-02-09T12:44:54.282Z,9.98
2023-02-09T12:47:57.633Z,10.00
2023-02-09T12:50:42.738Z,9.45
2023-02-09T12:53:40.206Z,13.07
2023-02-09T12:56:28.845Z,10.30
2023-02-09T12:59:17.148Z,12.85
2023-02-09T13:02:08.362Z,12.93
2023-02-09T13:05:17.010Z,20.02
2023-02-09T13:08:09.065Z,10.63
2023-02-09T13:11:14.389Z,11.10
2023-02-09T13:14:04.253Z,10.82
2023-02-09T13:17:20.195Z,11.40
2023-02-09T13:20:27.294Z,15.07
2023-02-09T13:23:40.980Z,51.22
2023-02-09T13:26:30.423Z,10.55
2023-02-09T13:29:21.383Z,14.48
2023-02-09T13:32:16.497Z,11.83
2023-02-09T13:35:12.631Z,21.05
2023-02-09T13:38:15.841Z,14.45
2023-02-09T13:41:02.036Z,12.15
2023-02-09T13:43:47.613Z,12.45
2023-02-09T13:46:35.141Z,9.15
2023-02-09T13:49:23.796Z,11.85
2023-02-09T13:52:19.883Z,10.43
2023-02-09T13:55:21.446Z,19.83
2023-02-09T13:58:08.923Z,12.93
2023-02-09T14:00:58.388Z,13.70
2023-02-09T14:03:57.943Z,12.20
2023-02-09T14:06:52.166Z,11.80
2023-02-09T14:09:46.820Z,11.68
2023-02-09T14:12:59.696Z,15.68
2023-02-09T14:16:06.876Z,10.63
2023-02-09T14:19:00.442Z,14.35
2023-02-09T14:21:46.355Z,12.10
2023-02-09T14:24:44.735Z,12.65
2023-02-09T14:27:32.965Z,24.83
2023-02-09T14:30:27.146Z,13.38
2023-02-09T14:33:22.143Z,13.43
2023-02-09T14:36:28.909Z,14.10
2023-02-09T14:39:17.027Z,11.57
2023-02-09T14:42:08.551Z,13.02
2023-02-09T14:44:56.167Z,13.10
2023-02-09T14:47:43.924Z,13.98
2023-02-09T14:50:29.521Z,17.52
2023-02-09T14:53:16.616Z,16.10
2023-02-09T14:56:02.045Z,13.68
2023-02-09T14:58:47.543Z,12.93
2023-02-09T15:01:33.117Z,14.98
2023-02-09T15:04:18.828Z,13.40
2023-02-09T15:07:04.081Z,10.00
2023-02-09T15:09:49.748Z,17.38
2023-02-09T15:12:34.870Z,14.98
2023-02-09T15:15:22.154Z,14.48
2023-02-09T15:18:14.509Z,13.93
2023-02-09T15:20:59.962Z,18.58
2023-02-09T15:23:45.371Z,15.93
2023-02-09T15:26:34.601Z,11.75
2023-02-09T15:29:20.211Z,14.90
2023-02-09T15:32:16.809Z,15.18
2023-02-09T15:35:02.213Z,13.85
2023-02-09T15:37:52.246Z,18.13
2023-02-09T15:41:00.699Z,16.95
2023-02-09T15:44:04.392Z,16.50
2023-02-09T15:47:08.164Z,17.58
2023-02-09T15:49:53.594Z,13.70
2023-02-09T15:52:39.071Z,19.45
2023-02-09T15:55:26.591Z,18.65
2023-02-09T15:58:18.945Z,14.52
2023-02-09T16:01:04.982Z,18.42
2023-02-09T16:03:50.209Z,15.13
2023-02-09T16:06:35.744Z,19.48
2023-02-09T16:09:27.695Z,18.65
2023-02-09T16:12:12.879Z,14.57
2023-02-09T16:14:58.158Z,23.13
2023-02-09T16:17:43.770Z,16.05
2023-02-09T16:20:29.109Z,15.60
2023-02-09T16:23:21.030Z,18.02
2023-02-09T16:26:06.451Z,13.70
2023-02-09T16:28:52.438Z,14.43
2023-02-09T16:31:37.824Z,13.80
2023-02-09T16:34:23.049Z,13.77
2023-02-09T16:37:08.383Z,15.02
2023-02-09T16:39:55.304Z,19.20
2023-02-09T16:42:40.612Z,13.52
2023-02-09T16:45:30.423Z,14.98
2023-02-09T16:48:30.177Z,15.27
2023-02-09T16:51:15.850Z,13.60
2023-02-09T16:54:01.209Z,14.82
2023-02-09T16:56:53.988Z,22.27
2023-02-09T16:59:40.053Z,20.85
2023-02-09T17:02:36.614Z,20.13
2023-02-09T17:05:34.966Z,19.27
2023-02-09T17:08:32.032Z,21.48
2023-02-09T17:11:21.993Z,19.42
2023-02-09T17:14:07.371Z,32.40
2023-02-09T17:16:53.696Z,22.08
2023-02-09T17:19:47.246Z,20.63
2023-02-09T17:22:33.437Z,23.08
2023-02-09T17:25:20.946Z,17.45
2023-02-09T17:28:06.062Z,21.70
2023-02-09T17:30:56.446Z,15.10
2023-02-09T17:33:41.904Z,17.23
2023-02-09T17:36:31.947Z,16.95
2023-02-09T17:39:18.947Z,16.25
2023-02-09T17:42:04.475Z,19.05
2023-02-09T17:44:50.759Z,17.60
2023-02-09T17:47:36.105Z,17.70
2023-02-09T17:50:22.726Z,19.95
2023-02-09T17:53:14.921Z,15.80
2023-02-09T17:56:00.364Z,17.20
2023-02-09T17:58:47.674Z,13.30
2023-02-09T18:01:33.285Z,16.02
2023-02-09T18:04:22.108Z,13.63
2023-02-09T18:07:07.144Z,13.70
2023-02-09T18:09:54.342Z,16.00
2023-02-09T18:12:40.075Z,14.80
2023-02-09T18:15:28.725Z,15.50
2023-02-09T18:18:14.363Z,14.93
2023-02-09T18:21:01.579Z,18.92
2023-02-09T18:23:47.115Z,14.05
2023-02-09T18:26:33.583Z,19.50
2023-02-09T18:29:22.679Z,15.90
2023-02-09T18:32:10.427Z,14.07
2023-02-09T18:34:56.085Z,22.35
2023-02-09T18:37:41.485Z,15.70
2023-02-09T18:40:26.915Z,18.35
2023-02-09T18:43:14.585Z,19.52
2023-02-09T18:46:01.027Z,15.27
2023-02-09T18:48:46.834Z,22.20
2023-02-09T18:51:32.477Z,25.95
2023-02-09T18:54:18.175Z,28.23
2023-02-09T18:57:03.199Z,24.77
2023-02-09T18:59:48.713Z,27.13
2023-02-09T19:02:34.236Z,27.23
2023-02-09T19:05:19.849Z,26.33
2023-02-09T19:08:07.281Z,26.30
2023-02-09T19:10:52.801Z,22.63
2023-02-09T19:13:38.312Z,28.20
2023-02-09T19:16:23.745Z,20.13
2023-02-09T19:19:09.391Z,20.25
2023-02-09T19:21:56.745Z,19.02
2023-02-09T19:24:42.902Z,23.98
2023-02-09T19:27:29.580Z,20.35
2023-02-09T19:30:21.336Z,22.33
2023-02-09T19:33:06.206Z,20.70
2023-02-09T19:35:59.355Z,23.67
2023-02-09T19:41:30.074Z,19.67
2023-02-09T19:44:15.779Z,17.95
2023-02-09T19:47:01.313Z,18.25
2023-02-09T19:49:46.472Z,20.33
2023-02-09T19:52:31.865Z,19.40
2023-02-09T19:55:17.107Z,20.13
2023-02-09T19:58:02.593Z,20.63
2023-02-09T20:00:49.402Z,20.30
2023-02-09T20:03:36.195Z,24.05
2023-02-09T20:06:21.344Z,20.50
2023-02-09T20:09:06.897Z,24.85
2023-02-09T20:11:52.100Z,24.55
2023-02-09T20:14:38.122Z,18.00
2023-02-09T20:17:23.135Z,23.77
2023-02-09T20:20:08.933Z,23.73
2023-02-09T20:22:54.116Z,20.40
2023-02-09T20:25:43.381Z,26.52
2023-02-09T20:28:28.646Z,27.05
2023-02-09T20:31:21.598Z,24.70
2023-02-09T20:34:10.030Z,22.13
2023-02-09T20:36:57.288Z,21.95
2023-02-09T20:39:42.746Z,21.00
2023-02-09T20:42:46.811Z,21.65
2023-02-09T20:45:50.774Z,18.58
2023-02-09T20:48:36.043Z,24.70
2023-02-09T20:51:21.639Z,20.15
2023-02-09T20:54:07.102Z,23.70
2023-02-09T20:56:52.322Z,18.52
2023-02-09T20:59:37.719Z,22.02
2023-02-09T21:02:23.156Z,22.10
2023-02-09T21:05:08.859Z,20.58
2023-02-09T21:07:54.289Z,20.08
2023-02-09T21:10:40.254Z,22.13
2023-02-09T21:13:25.751Z,25.50
2023-02-09T21:16:15.308Z,21.98
2023-02-09T21:19:00.862Z,23.77
2023-02-09T21:21:45.899Z,22.73
2023-02-09T21:24:31.132Z,21.23
2023-02-09T21:27:16.645Z,22.98
2023-02-09T21:30:02.111Z,23.52
2023-02-09T21:32:47.672Z,22.55
2023-02-09T21:35:33.105Z,25.67
2023-02-09T21:38:18.508Z,27.00
2023-02-09T21:41:48.598Z,27.17
2023-02-09T21:44:36.795Z,24.90
2023-02-09T21:47:30.172Z,22.20
2023-02-09T21:50:15.606Z,27.95
2023-02-09T21:53:01.966Z,29.52
2023-02-09T21:55:47.271Z,24.88
2023-02-09T21:58:32.655Z,25.38
2023-02-09T22:01:18.089Z,24.00
2023-02-09T22:04:04.012Z,25.13
2023-02-09T22:06:49.613Z,26.52
2023-02-09T22:09:34.796Z,25.50
2023-02-09T22:12:20.373Z,20.02
2023-02-09T22:15:06.477Z,22.02
2023-02-09T22:17:51.987Z,29.35
2023-02-09T22:20:41.776Z,22.35
2023-02-09T22:23:27.133Z,25.25
2023-02-09T22:26:13.841Z,21.80
2023-02-09T22:28:59.440Z,22.63
2023-02-09T22:31:45.447Z,22.02
2023-02-09T22:34:30.884Z,20.13
2023-02-09T22:37:16.161Z,21.15
2023-02-09T22:40:01.598Z,21.38
2023-02-09T22:42:47.139Z,24.40
2023-02-09T22:45:32.399Z,21.80
2023-02-09T22:48:17.848Z,24.48
2023-02-09T22:51:03.263Z,26.45
2023-02-09T22:53:48.719Z,23.55
2023-02-09T22:56:34.410Z,27.02
2023-02-09T22:59:19.557Z,26.52
2023-02-09T23:02:05.609Z,24.60
2023-02-09T23:04:51.272Z,23.58
2023-02-09T23:07:37.106Z,23.73
2023-02-09T23:10:23.583Z,29.60
2023-02-09T23:13:08.686Z,24.42
2023-02-09T23:15:54.077Z,28.27
2023-02-09T23:18:40.491Z,24.80
2023-02-09T23:21:32.253Z,27.60
2023-02-09T23:24:21.820Z,24.15
2023-02-09T23:27:07.315Z,23.70
2023-02-09T23:29:55.174Z,21.73
2023-02-09T23:32:40.614Z,26.13
2023-02-09T23:35:26.033Z,24.42
2023-02-09T23:38:11.402Z,29.10
2023-02-09T23:40:56.769Z,21.75
2023-02-09T23:43:42.721Z,22.13
2023-02-09T23:46:29.607Z,25.73
2023-02-09T23:49:15.199Z,28.40
2023-02-09T23:52:00.944Z,28.83
2023-02-09T23:54:46.892Z,21.73
2023-02-09T23:57:32.460Z,24.60
